Time;durP1;ratioP1;P1;durP2;ratioP2;P2;SDS_P1;SDS_P2;PMS_P1;PMS_P2;Temp;Humidity;BMP_temperature;BMP_pressure;BME280_temperature;BME280_humidity;BME280_pressure;Samples;Min_cycle;Max_cycle;Signal;HPM_P1;HPM_P2
2022/07/15 00:02:06;;;;;;;5.22;0.95;;;;;;;16.58;67.19;102374.44;5052076;28;20040;-75
2022/07/15 00:04:32;;;;;;;3.17;0.82;;;;;;;16.57;67.26;102377.13;5044004;28;20033;-75
2022/07/15 00:06:57;;;;;;;1.58;0.80;;;;;;;16.55;67.27;102369.25;5045228;28;20052;-75
2022/07/15 00:10:13;;;;;;;5.85;1.05;;;;;;;16.54;67.23;102374.63;5039767;28;20025;-75
2022/07/15 00:12:09;;;;;;;3.00;0.93;;;;;;;16.53;67.16;102364.97;5060414;28;20052;-75
2022/07/15 00:14:34;;;;;;;3.15;1.10;;;;;;;16.50;66.98;102366.81;5059680;28;20072;-75
2022/07/15 00:17:00;;;;;;;1.67;1.00;;;;;;;16.48;67.08;102366.03;5051780;28;20072;-75
2022/07/15 00:19:25;;;;;;;4.55;0.77;;;;;;;16.47;67.00;102366.09;5043597;28;20021;-75
2022/07/15 00:21:51;;;;;;;3.05;0.90;;;;;;;16.46;66.75;102367.88;5056811;28;20037;-75
2022/07/15 00:24:16;;;;;;;2.40;0.93;;;;;;;16.44;66.87;102371.50;5052633;28;20040;-75
2022/07/15 00:26:41;;;;;;;2.15;0.90;;;;;;;16.41;66.66;102361.03;5044649;28;20037;-75
2022/07/15 00:29:07;;;;;;;2.63;0.93;;;;;;;16.40;66.94;102361.97;5056827;28;20104;-75
2022/07/15 00:31:32;;;;;;;3.15;0.80;;;;;;;16.39;66.64;102363.75;5062179;28;20364;-75
2022/07/15 00:33:58;;;;;;;3.58;0.75;;;;;;;16.36;66.85;102355.94;5058725;28;20044;-75
2022/07/15 00:36:23;;;;;;;2.00;0.88;;;;;;;16.33;66.89;102355.22;5041229;28;20056;-75
2022/07/15 00:38:49;;;;;;;2.65;0.93;;;;;;;16.31;66.94;102357.91;5016968;28;20235;-75
2022/07/15 00:41:14;;;;;;;1.98;1.00;;;;;;;16.29;66.84;102357.13;5038920;28;20033;-75
2022/07/15 00:43:40;;;;;;;2.35;0.85;;;;;;;16.27;66.99;102354.53;5028791;28;20092;-75
2022/07/15 00:46:05;;;;;;;1.85;0.80;;;;;;;16.25;66.78;102351.09;5043873;28;20047;-75
2022/07/15 00:48:31;;;;;;;1.83;0.70;;;;;;;16.24;66.78;102361.72;5057596;28;20078;-75
2022/07/15 00:50:56;;;;;;;1.83;0.90;;;;;;;16.20;67.06;102358.34;5045818;28;20310;-75
2022/07/15 00:53:22;;;;;;;2.40;0.90;;;;;;;16.18;66.91;102360.19;5035001;28;20041;-75
2022/07/15 00:55:49;;;;;;;1.98;0.80;;;;;;;16.17;66.98;102352.31;5045733;28;20028;-75
2022/07/15 00:58:18;;;;;;;3.65;1.13;;;;;;;16.16;67.04;102354.09;5048601;28;20044;-75
2022/07/15 01:00:46;;;;;;;4.40;0.98;;;;;;;16.14;67.07;102352.47;5053239;28;20021;-75
2022/07/15 01:03:13;;;;;;;;;;;;;;;16.11;67.03;102353.44;5073608;28;20047;-75
2022/07/15 01:05:38;;;;;;;1.80;0.80;;;;;;;16.09;67.08;102356.13;5059251;28;19908;-75
2022/07/15 01:08:04;;;;;;;5.05;0.93;;;;;;;16.08;67.39;102359.72;5019043;28;20033;-75
2022/07/15 01:10:30;;;;;;;3.80;1.13;;;;;;;16.04;67.33;102354.59;5034926;28;20053;-75
2022/07/15 01:12:55;;;;;;;1.85;0.73;;;;;;;16.03;67.33;102363.47;5055444;28;20041;-75
2022/07/15 01:15:20;;;;;;;1.30;0.80;;;;;;;16.02;67.29;102356.44;5045080;28;20035;-75
2022/07/15 01:17:46;;;;;;;1.63;0.85;;;;;;;15.99;67.33;102357.44;5029356;28;20049;-75
2022/07/15 01:20:13;;;;;;;3.13;0.77;;;;;;;15.97;67.13;102361.91;5058865;28;20344;-75
2022/07/15 01:22:39;;;;;;;1.55;0.70;;;;;;;15.95;67.35;102362.88;5054975;28;20048;-75
2022/07/15 01:25:05;;;;;;;3.90;0.80;;;;;;;15.92;67.11;102361.25;5055826;28;20099;-75
2022/07/15 01:27:32;;;;;;;2.85;1.20;;;;;;;15.90;67.31;102358.66;5030462;28;20303;-75
2022/07/15 01:29:59;;;;;;;2.30;0.80;;;;;;;15.88;67.56;102357.84;5064994;28;20441;-75
2022/07/15 01:32:24;;;;;;;2.33;1.08;;;;;;;15.86;67.44;102362.34;5026074;28;20029;-75
2022/07/15 01:34:51;;;;;;;3.95;0.88;;;;;;;15.84;67.48;102363.28;5051929;28;20034;-75
2022/07/15 01:37:17;;;;;;;1.65;0.60;;;;;;;15.82;67.75;102362.50;5045490;28;20037;-75
2022/07/15 01:39:43;;;;;;;2.30;0.80;;;;;;;15.80;67.43;102361.69;5063137;28;20037;-75
2022/07/15 01:42:08;;;;;;;2.20;0.80;;;;;;;15.78;67.51;102361.75;5061786;28;20337;-75
2022/07/15 01:44:34;;;;;;;2.72;0.70;;;;;;;15.76;67.41;102357.47;5037278;28;20396;-75
2022/07/15 01:46:59;;;;;;;3.20;0.93;;;;;;;15.75;67.80;102361.88;5046512;28;20407;-75
2022/07/15 01:49:25;;;;;;;3.38;0.90;;;;;;;15.72;67.59;102356.69;5062320;28;20040;-75
2022/07/15 01:51:55;;;;;;;4.05;0.90;;;;;;;15.71;67.81;102360.22;5016719;28;20041;-75
2022/07/15 01:54:22;;;;;;;2.50;0.80;;;;;;;15.68;67.69;102355.06;5052901;28;20043;-75
2022/07/15 01:56:48;;;;;;;1.73;0.80;;;;;;;15.66;68.05;102359.53;5057484;28;20042;-75
2022/07/15 01:59:14;;;;;;;4.20;0.80;;;;;;;15.64;67.85;102353.47;5057382;28;20350;-75
2022/07/15 02:01:39;;;;;;;2.10;0.70;;;;;;;15.61;67.81;102357.09;5059747;28;20106;-75
2022/07/15 02:04:05;;;;;;;2.67;0.82;;;;;;;15.60;68.07;102362.44;5044681;28;20067;-75
2022/07/15 02:06:30;;;;;;;3.40;1.00;;;;;;;15.58;68.05;102366.91;5048908;28;20180;-75
2022/07/15 02:08:56;;;;;;;2.05;0.80;;;;;;;15.55;67.82;102366.13;5060203;28;20043;-78
2022/07/15 02:11:21;;;;;;;2.00;0.60;;;;;;;15.53;68.17;102362.66;5007240;28;20370;-77
2022/07/15 02:13:47;;;;;;;2.33;0.70;;;;;;;15.51;67.98;102364.47;5062656;28;20029;-77
2022/07/15 02:16:13;;;;;;;1.23;1.00;;;;;;;15.51;68.05;102367.13;5056616;28;20321;-77
2022/07/15 02:18:38;;;;;;;1.85;0.80;;;;;;;15.49;68.44;102368.97;5059659;28;20320;-75
2022/07/15 02:21:03;;;;;;;3.40;0.75;;;;;;;15.48;68.23;102369.00;5033757;28;20048;-75
2022/07/15 02:23:29;;;;;;;1.92;0.70;;;;;;;15.44;68.38;102360.34;5059621;28;20028;-75
2022/07/15 02:25:55;;;;;;;2.90;0.93;;;;;;;15.42;68.22;102356.91;5036875;28;20304;-75
2022/07/15 02:28:20;;;;;;;2.55;0.68;;;;;;;15.41;68.30;102354.31;5058693;28;20032;-75
2022/07/15 02:30:46;;;;;;;1.90;1.02;;;;;;;15.38;68.42;102354.44;5017325;28;20223;-75
2022/07/15 02:33:13;;;;;;;1.48;0.60;;;;;;;15.35;68.45;102356.28;5030144;28;20044;-75
2022/07/15 02:35:39;;;;;;;5.15;0.93;;;;;;;15.34;68.43;102357.19;5048164;28;20101;-75
2022/07/15 02:38:05;;;;;;;2.20;0.95;;;;;;;15.34;68.60;102356.34;5036139;28;20104;-75
2022/07/15 02:40:31;;;;;;;2.25;0.82;;;;;;;15.31;68.76;102362.56;5056402;28;20033;-75
2022/07/15 02:42:57;;;;;;;3.03;1.10;;;;;;;15.29;68.65;102359.13;5055953;28;20035;-75
2022/07/15 02:45:24;;;;;;;1.88;1.00;;;;;;;15.28;68.66;102356.53;5051040;28;20069;-75
2022/07/15 02:47:51;;;;;;;3.00;0.50;;;;;;;15.26;68.77;102363.66;5025378;28;20107;-75
2022/07/15 02:50:17;;;;;;;4.25;0.95;;;;;;;15.24;68.61;102369.00;5048043;28;20041;-75
2022/07/15 02:52:43;;;;;;;4.07;1.00;;;;;;;15.22;68.74;102368.19;5036425;28;20063;-75
2022/07/15 02:55:09;;;;;;;1.58;0.70;;;;;;;15.21;69.09;102376.16;5054482;28;20075;-75
2022/07/15 02:57:35;;;;;;;1.80;0.68;;;;;;;15.19;68.80;102370.97;5038147;28;20867;-75
2022/07/15 03:00:01;;;;;;;3.50;0.82;;;;;;;15.17;68.76;102370.13;5053653;28;20040;-75
2022/07/15 03:02:27;;;;;;;3.35;0.80;;;;;;;15.15;69.13;102375.47;5040152;28;20047;-75
2022/07/15 03:04:52;;;;;;;2.10;0.80;;;;;;;15.13;68.96;102379.97;5061540;28;20378;-75
2022/07/15 03:07:18;;;;;;;0.85;0.40;;;;;;;15.12;68.97;102374.72;5055567;28;20044;-75
2022/07/15 03:09:43;;;;;;;1.08;0.88;;;;;;;15.10;69.17;102372.13;5060032;28;20221;-75
2022/07/15 03:12:08;;;;;;;3.17;0.88;;;;;;;15.09;69.27;102382.75;5054099;28;20349;-75
2022/07/15 03:14:34;;;;;;;2.03;1.05;;;;;;;15.08;69.36;102378.38;5040605;28;20403;-75
2022/07/15 03:16:59;;;;;;;1.33;0.68;;;;;;;15.07;69.05;102384.56;5022019;28;20040;-75
2022/07/15 03:19:24;;;;;;;1.88;0.70;;;;;;;15.04;69.53;102388.16;5061297;28;20036;-75
2022/07/15 03:21:50;;;;;;;1.95;0.95;;;;;;;15.02;69.55;102392.63;5033688;28;20364;-75
2022/07/15 03:24:16;;;;;;;0.88;0.70;;;;;;;15.01;69.63;102393.56;5042065;28;20336;-75
2022/07/15 03:26:42;;;;;;;2.15;0.73;;;;;;;14.99;69.68;102395.41;5045533;28;20316;-75
2022/07/15 03:29:08;;;;;;;1.05;0.57;;;;;;;14.97;69.48;102397.22;5031123;28;20419;-75
2022/07/15 03:31:33;;;;;;;0.98;0.70;;;;;;;14.96;69.90;102401.63;5052551;28;20205;-75
2022/07/15 03:33:59;;;;;;;1.23;0.50;;;;;;;14.95;69.64;102402.56;5053238;28;20282;-75
2022/07/15 03:36:24;;;;;;;2.08;0.63;;;;;;;14.94;69.68;102398.19;5045382;28;20037;-75
2022/07/15 03:38:51;;;;;;;1.60;0.60;;;;;;;14.93;69.48;102395.59;5049812;28;20059;-75
2022/07/15 03:41:21;;;;;;;3.03;0.70;;;;;;;14.93;69.67;102403.50;5053736;28;20332;-75
2022/07/15 03:43:47;;;;;;;2.60;0.80;;;;;;;14.91;69.71;102395.63;5038492;28;20237;-75
2022/07/15 03:46:15;;;;;;;2.10;0.98;;;;;;;14.90;69.58;102404.50;5052950;28;20047;-75
2022/07/15 03:48:40;;;;;;;1.85;0.77;;;;;;;14.89;69.94;102401.91;5053004;28;20231;-75
2022/07/15 03:51:06;;;;;;;2.63;0.60;;;;;;;14.89;69.98;102407.16;5045004;28;20029;-75
2022/07/15 03:53:31;;;;;;;2.20;1.00;;;;;;;14.88;69.78;102411.59;5047706;28;20041;-75
2022/07/15 03:55:56;;;;;;;2.55;0.75;;;;;;;14.87;69.76;102414.28;5034925;28;20073;-75
2022/07/15 03:58:22;;;;;;;2.67;0.73;;;;;;;14.85;70.03;102419.59;5044933;28;20427;-75
2022/07/15 04:00:47;;;;;;;1.80;0.90;;;;;;;14.85;70.10;102411.69;5059371;28;20112;-75
2022/07/15 04:03:13;;;;;;;1.90;0.60;;;;;;;14.85;69.89;102416.09;5049995;28;20047;-75
2022/07/15 04:05:38;;;;;;;1.83;0.65;;;;;;;14.83;70.15;102413.53;5042798;28;20037;-75
2022/07/15 04:08:04;;;;;;;3.03;0.73;;;;;;;14.83;70.07;102417.94;5048609;28;20114;-75
2022/07/15 04:10:31;;;;;;;2.45;0.70;;;;;;;14.82;69.98;102422.34;5053411;28;20040;-75
2022/07/15 04:12:56;;;;;;;1.85;0.60;;;;;;;14.82;69.91;102424.13;5020950;28;20037;-75
2022/07/15 04:15:22;;;;;;;2.20;0.77;;;;;;;14.80;70.07;102418.88;5050440;28;20094;-75
2022/07/15 04:17:47;;;;;;;1.70;0.63;;;;;;;14.79;69.92;102427.72;5051191;28;20048;-75
2022/07/15 04:20:12;;;;;;;5.18;0.80;;;;;;;14.78;70.17;102429.47;5027741;28;20052;-75
2022/07/15 04:22:40;;;;;;;6.63;0.98;;;;;;;14.79;70.46;102427.72;5034143;28;20067;-75
2022/07/15 04:25:07;;;;;;;1.08;0.63;;;;;;;14.77;70.31;102429.53;5047702;28;20101;-75
2022/07/15 04:27:33;;;;;;;2.42;1.02;;;;;;;14.77;70.12;102429.53;5015754;28;20029;-75
2022/07/15 04:29:58;;;;;;;4.63;0.70;;;;;;;14.77;70.02;102433.06;5006226;28;20126;-75
2022/07/15 04:32:23;;;;;;;4.97;0.80;;;;;;;14.75;70.45;102429.59;5035683;28;20596;-75
2022/07/15 04:34:49;;;;;;;3.60;1.00;;;;;;;14.75;70.04;102432.25;5049317;28;20255;-75
2022/07/15 04:37:14;;;;;;;2.70;1.02;;;;;;;14.74;70.12;102430.50;5048568;28;20059;-75
2022/07/15 04:39:40;;;;;;;2.63;1.00;;;;;;;14.75;70.45;102436.63;5033555;28;20041;-75
2022/07/15 04:42:05;;;;;;;1.23;0.80;;;;;;;14.74;70.28;102435.78;5033896;28;20037;-75
2022/07/15 04:44:30;;;;;;;2.30;0.77;;;;;;;14.75;70.60;102436.63;5036034;28;20306;-75
2022/07/15 04:46:56;;;;;;;1.73;0.73;;;;;;;14.73;70.43;102428.75;5035223;28;20244;-75
2022/07/15 04:52:06;;;;;;;1.40;0.75;;;;;;;14.75;70.56;102432.25;5047821;28;20060;-75
2022/07/15 04:54:31;;;;;;;4.30;0.73;;;;;;;14.75;70.69;102437.50;5011175;28;20033;-75
2022/07/15 04:56:56;;;;;;;2.95;0.80;;;;;;;14.75;70.70;102434.00;5018353;28;20120;-75
2022/07/15 04:59:22;;;;;;;3.55;0.60;;;;;;;14.75;70.63;102437.50;5057184;28;20048;-75
2022/07/15 05:01:47;;;;;;;3.72;1.02;;;;;;;14.75;70.51;102434.88;5059222;28;20033;-75
2022/07/15 05:04:13;;;;;;;2.63;0.70;;;;;;;14.77;70.54;102432.16;5053070;28;20118;-75
2022/07/15 05:06:38;;;;;;;1.40;0.80;;;;;;;14.78;71.07;102429.47;5059209;28;20052;-75
2022/07/15 05:09:03;;;;;;;1.85;0.60;;;;;;;14.78;71.14;102426.84;5033691;28;20247;-75
2022/07/15 05:11:29;;;;;;;4.50;0.90;;;;;;;14.78;70.76;102426.84;5037421;28;20049;-75
2022/07/15 05:13:54;;;;;;;1.42;0.65;;;;;;;14.78;70.99;102426.84;5032306;28;20044;-75
2022/07/15 05:16:20;;;;;;;1.55;0.60;;;;;;;14.80;71.00;102431.22;5052206;28;20047;-75
2022/07/15 05:18:45;;;;;;;2.45;0.60;;;;;;;14.81;71.00;102425.00;5028364;28;20048;-75
2022/07/15 05:21:10;;;;;;;1.63;0.80;;;;;;;14.81;71.32;102425.91;5029621;28;20029;-75
2022/07/15 05:23:36;;;;;;;1.00;0.50;;;;;;;14.82;70.94;102421.47;5007634;28;20090;-75
2022/07/15 05:26:01;;;;;;;3.55;0.95;;;;;;;14.83;70.94;102423.22;5039083;28;20040;-75
2022/07/15 05:28:27;;;;;;;1.23;0.70;;;;;;;14.83;71.01;102417.94;5047062;28;20118;-75
2022/07/15 05:30:52;;;;;;;0.88;0.45;;;;;;;14.83;71.15;102412.66;5033758;28;20109;-75
2022/07/15 05:33:18;;;;;;;0.82;0.52;;;;;;;14.84;70.81;102412.59;5047188;28;20064;-75
2022/07/15 05:35:43;;;;;;;3.97;0.50;;;;;;;14.85;70.82;102413.47;5049272;28;20045;-75
2022/07/15 05:38:09;;;;;;;6.55;0.80;;;;;;;14.86;70.74;102415.19;5030048;28;20033;-75
2022/07/15 05:40:35;;;;;;;2.90;0.60;;;;;;;14.87;71.13;102416.91;5052204;28;20044;-75
2022/07/15 05:43:00;;;;;;;1.48;0.52;;;;;;;14.88;71.21;102411.59;5041487;28;20123;-75
2022/07/15 05:45:26;;;;;;;1.48;0.40;;;;;;;14.90;71.60;102414.19;5028921;28;20041;-75
2022/07/15 05:47:52;;;;;;;0.75;0.52;;;;;;;14.90;71.17;102411.56;5045770;28;20048;-75
2022/07/15 05:50:19;;;;;;;2.47;0.60;;;;;;;14.91;71.20;102413.25;5026510;28;20044;-75
2022/07/15 05:52:44;;;;;;;1.55;0.70;;;;;;;14.92;71.54;102417.63;5048872;28;20041;-75
2022/07/15 05:55:10;;;;;;;1.00;0.50;;;;;;;14.92;71.22;102422.91;5035922;28;20036;-75
2022/07/15 05:57:35;;;;;;;1.10;0.60;;;;;;;14.94;71.42;102419.28;5045559;28;20382;-75
2022/07/15 06:00:01;;;;;;;0.63;0.40;;;;;;;14.94;71.74;102416.66;5037853;28;20271;-75
2022/07/15 06:02:26;;;;;;;2.00;0.82;;;;;;;14.97;71.67;102420.94;5023398;28;20049;-75
2022/07/15 06:04:52;;;;;;;2.17;0.50;;;;;;;14.97;71.64;102418.31;5043332;28;20336;-75
2022/07/15 06:07:17;;;;;;;1.23;0.85;;;;;;;14.98;71.82;102414.78;5027198;28;20068;-75
2022/07/15 06:09:42;;;;;;;1.48;0.73;;;;;;;15.00;71.89;102420.84;5022843;28;20067;-75
2022/07/15 06:12:09;;;;;;;1.67;0.80;;;;;;;15.01;71.94;102425.22;5032945;28;20030;-75
2022/07/15 06:14:35;;;;;;;2.40;0.43;;;;;;;15.04;71.79;102426.88;5051967;28;20350;-75
2022/07/15 06:17:00;;;;;;;2.28;0.43;;;;;;;15.04;71.90;102414.56;5045827;28;20045;-75
2022/07/15 06:19:26;;;;;;;1.48;0.60;;;;;;;15.05;72.25;102418.94;5039773;28;20231;-75
2022/07/15 06:21:51;;;;;;;0.77;0.50;;;;;;;15.07;71.98;102421.50;5052214;28;20064;-75
2022/07/15 06:24:16;;;;;;;1.67;0.50;;;;;;;15.07;72.08;102417.09;5053014;28;20301;-75
2022/07/15 06:26:42;;;;;;;2.33;0.50;;;;;;;15.08;72.38;102424.09;5044838;28;20068;-75
2022/07/15 06:29:07;;;;;;;0.80;0.40;;;;;;;15.09;72.16;102417.03;5037514;28;20581;-75
2022/07/15 06:31:33;;;;;;;1.52;0.45;;;;;;;15.10;71.41;102417.00;5048384;28;20053;-75
2022/07/15 06:33:59;;;;;;;1.50;0.40;;;;;;;15.11;71.44;102416.06;5032980;28;20100;-75
2022/07/15 06:36:25;;;;;;;2.05;0.40;;;;;;;15.13;71.15;102410.75;5046264;28;20116;-75
2022/07/15 06:38:50;;;;;;;2.40;0.63;;;;;;;15.16;71.33;102410.63;5043237;28;20076;-75
2022/07/15 06:41:16;;;;;;;1.63;0.47;;;;;;;15.18;71.11;102414.09;5052087;28;20328;-75
2022/07/15 06:43:43;;;;;;;0.95;0.38;;;;;;;15.21;71.04;102418.38;5043386;28;20056;-75
2022/07/15 06:46:09;;;;;;;7.13;0.80;;;;;;;15.24;71.25;102426.19;5050458;28;20955;-75
2022/07/15 06:48:34;;;;;;;1.45;0.30;;;;;;;15.27;70.91;102423.47;5035953;28;20049;-75
2022/07/15 06:51:00;;;;;;;0.85;0.38;;;;;;;15.28;71.02;102419.88;5049441;28;20045;-75
2022/07/15 06:53:25;;;;;;;3.58;0.93;;;;;;;15.31;70.53;102422.44;5052282;28;20037;-75
2022/07/15 06:55:52;;;;;;;2.58;0.50;;;;;;;15.31;70.00;102427.72;5047846;28;20255;-75
2022/07/15 06:58:17;;;;;;;1.92;0.40;;;;;;;15.33;70.42;102429.41;5009585;28;20037;-75
2022/07/15 07:00:43;;;;;;;3.17;0.30;;;;;;;15.36;70.59;102431.06;5049442;28;20320;-75
2022/07/15 07:03:08;;;;;;;3.22;0.90;;;;;;;15.37;70.59;102432.75;5028840;28;20033;-75
2022/07/15 07:05:33;;;;;;;2.63;0.45;;;;;;;15.39;70.23;102433.59;5045226;28;20064;-75
2022/07/15 07:07:59;;;;;;;1.25;0.45;;;;;;;15.41;70.42;102431.75;5057260;28;20052;-75
2022/07/15 07:10:25;;;;;;;4.60;0.60;;;;;;;15.44;70.52;102441.34;5046249;28;20037;-75
2022/07/15 07:12:51;;;;;;;2.45;0.45;;;;;;;15.44;70.89;102444.81;5021781;28;20442;-75
2022/07/15 07:15:17;;;;;;;1.30;0.50;;;;;;;15.48;70.63;102435.91;5028248;28;20037;-75
2022/07/15 07:17:43;;;;;;;1.58;0.45;;;;;;;15.50;70.36;102435.84;5039634;28;20084;-75
2022/07/15 07:20:09;;;;;;;2.75;0.60;;;;;;;15.50;70.53;102439.34;5047211;28;20123;-75
2022/07/15 07:22:35;;;;;;;1.30;0.40;;;;;;;15.52;70.26;102441.94;5031757;28;20260;-75
2022/07/15 07:25:01;;;;;;;1.42;0.30;;;;;;;15.54;69.85;102437.44;5055005;28;20316;-75
2022/07/15 07:27:26;;;;;;;2.72;0.50;;;;;;;15.54;70.33;102433.03;5050599;28;20047;-75
2022/07/15 07:29:52;;;;;;;0.60;0.20;;;;;;;15.55;70.04;102429.47;5050381;28;20074;-75
2022/07/15 07:32:17;;;;;;;2.13;0.40;;;;;;;15.58;70.19;102438.22;5051428;28;20037;-75
2022/07/15 07:34:42;;;;;;;1.10;0.30;;;;;;;15.60;70.17;102437.22;5050026;28;20036;-75
2022/07/15 07:37:08;;;;;;;0.50;0.40;;;;;;;15.61;69.62;102425.75;5029819;28;20041;-75
2022/07/15 07:39:33;;;;;;;0.80;0.30;;;;;;;15.63;69.28;102428.34;5048237;28;20386;-75
2022/07/15 07:41:58;;;;;;;2.20;0.50;;;;;;;15.66;69.50;102430.84;5039841;28;20039;-75
2022/07/15 07:44:24;;;;;;;6.00;0.82;;;;;;;15.67;69.43;102438.72;5031833;28;20056;-75
2022/07/15 07:46:49;;;;;;;1.10;0.40;;;;;;;15.70;69.19;102437.75;5031874;28;20224;-75
2022/07/15 07:49:15;;;;;;;0.60;0.30;;;;;;;15.70;69.07;102435.97;5048195;28;20056;-75
2022/07/15 07:51:41;;;;;;;1.63;0.50;;;;;;;15.72;69.36;102433.28;5048208;28;20064;-75
2022/07/15 07:54:10;;;;;;;2.30;0.38;;;;;;;15.72;68.98;102426.22;5045379;28;20361;-75
2022/07/15 07:56:36;;;;;;;;;;;;;;;15.75;68.81;102435.81;5045379;28;20131;-75
2022/07/15 07:59:01;;;;;;;1.02;0.40;;;;;;;15.78;68.81;102434.88;5046557;28;19924;-75
2022/07/15 08:01:27;;;;;;;0.85;0.30;;;;;;;15.80;68.45;102436.53;5049308;28;20071;-75
2022/07/15 08:03:52;;;;;;;1.15;0.40;;;;;;;15.83;68.53;102432.91;5038148;28;20041;-75
2022/07/15 08:06:17;;;;;;;0.95;0.40;;;;;;;15.84;68.20;102430.19;5045085;28;20095;-75
2022/07/15 08:08:44;;;;;;;1.15;0.43;;;;;;;15.89;67.94;102433.53;5026206;28;20340;-75
2022/07/15 08:11:09;;;;;;;1.45;0.45;;;;;;;15.90;68.05;102429.13;5029889;28;20064;-75
2022/07/15 08:13:35;;;;;;;4.95;0.68;;;;;;;15.92;67.54;102429.94;5046823;28;20047;-75
2022/07/15 08:16:00;;;;;;;1.73;0.40;;;;;;;15.96;67.67;102426.25;5033983;28;20114;-75
2022/07/15 08:18:26;;;;;;;0.88;0.32;;;;;;;15.99;67.59;102433.19;5046636;28;20048;-75
2022/07/15 08:20:51;;;;;;;1.55;0.30;;;;;;;16.02;67.87;102425.13;5052664;28;20082;-75
2022/07/15 08:23:20;;;;;;;1.40;0.57;;;;;;;16.05;67.71;102432.97;5035793;28;20037;-75
2022/07/15 08:25:48;;;;;;;1.77;0.30;;;;;;;16.08;67.53;102428.41;5047959;28;20125;-75
2022/07/15 08:28:13;;;;;;;2.40;0.57;;;;;;;16.13;66.56;102422.94;5022046;28;20044;-75
2022/07/15 08:30:38;;;;;;;0.65;0.30;;;;;;;16.15;66.64;102421.09;5035686;28;20447;-75
2022/07/15 08:33:04;;;;;;;1.25;0.32;;;;;;;16.16;66.33;102433.41;5026880;28;20132;-75
2022/07/15 08:35:30;;;;;;;0.47;0.40;;;;;;;16.18;66.42;102433.34;5039974;28;20041;-75
2022/07/15 08:37:56;;;;;;;1.85;0.30;;;;;;;16.22;66.91;102427.00;5038888;28;20331;-75
2022/07/15 08:40:21;;;;;;;2.35;0.40;;;;;;;16.23;66.42;102429.59;5057949;28;20051;-75
2022/07/15 08:42:47;;;;;;;0.82;0.70;;;;;;;16.28;66.48;102432.94;5047750;28;20041;-75
2022/07/15 08:45:15;;;;;;;1.02;0.40;;;;;;;16.32;66.48;102433.66;5047617;28;20040;-75
2022/07/15 08:47:42;;;;;;;2.97;0.60;;;;;;;16.36;66.80;102432.63;5050386;28;20036;-75
2022/07/15 08:50:11;;;;;;;1.25;0.43;;;;;;;16.39;66.86;102428.97;5049448;28;20052;-75
2022/07/15 08:52:37;;;;;;;0.90;0.47;;;;;;;16.41;67.01;102432.41;5037618;28;20159;-75
2022/07/15 08:55:03;;;;;;;0.60;0.52;;;;;;;16.40;66.74;102430.72;5051151;28;20071;-75
2022/07/15 08:57:29;;;;;;;0.52;0.38;;;;;;;16.40;66.68;102428.91;5043528;28;20289;-75
2022/07/15 08:59:54;;;;;;;1.83;0.40;;;;;;;16.45;66.65;102434.03;5048349;28;20079;-75
2022/07/15 09:02:20;;;;;;;2.35;0.50;;;;;;;16.48;66.09;102433.91;5049778;28;20336;-75
2022/07/15 09:05:21;;;;;;;1.63;0.43;;;;;;;16.51;65.38;102431.13;5045653;28;20040;-75
2022/07/15 09:07:55;;;;;;;1.05;0.40;;;;;;;16.55;65.82;102426.59;5033797;28;20040;-75
2022/07/15 09:10:22;;;;;;;5.07;0.50;;;;;;;16.59;65.59;102421.13;5046344;28;20402;-75
2022/07/15 09:12:54;;;;;;;1.33;0.40;;;;;;;16.62;65.27;102426.25;5051275;28;20052;-75
2022/07/15 09:15:35;;;;;;;3.33;0.60;;;;;;;16.69;65.52;102422.44;5048914;28;20057;-75
2022/07/15 09:18:06;;;;;;;3.00;0.60;;;;;;;16.72;64.45;102421.47;5049866;28;20053;-75
2022/07/15 09:20:32;;;;;;;3.72;0.60;;;;;;;16.72;64.75;102421.47;5045630;28;20029;-75
2022/07/15 09:22:57;;;;;;;4.50;0.60;;;;;;;16.76;64.91;102416.91;5021885;28;20236;-75
2022/07/15 09:25:24;;;;;;;2.15;0.40;;;;;;;16.77;65.63;102421.25;5045118;28;20040;-75
2022/07/15 09:27:50;;;;;;;1.48;0.60;;;;;;;16.79;65.24;102419.41;5053203;28;20328;-75
2022/07/15 09:33:39;;;;;;;1.13;0.70;;;;;;;16.85;65.30;102421.84;5037749;28;20340;-75
2022/07/15 09:36:07;;;;;;;0.45;0.43;;;;;;;16.88;65.46;102408.47;5050937;28;20033;-75
2022/07/15 09:38:32;;;;;;;;;;;;;;;16.88;65.53;102404.06;5047559;28;20041;-75
2022/07/15 09:40:58;;;;;;;2.40;0.50;;;;;;;16.88;64.60;102400.53;5043235;28;19992;-75
2022/07/15 09:43:24;;;;;;;2.65;0.70;;;;;;;16.88;64.74;102409.34;5054452;28;20044;-75
2022/07/15 09:45:57;;;;;;;2.97;0.70;;;;;;;16.91;65.39;102418.09;5049646;28;20072;-75
2022/07/15 09:48:24;;;;;;;0.55;0.50;;;;;;;16.89;65.70;102413.72;5046694;28;20282;-75
2022/07/15 09:50:50;;;;;;;4.68;0.90;;;;;;;16.92;65.00;102411.84;5047106;28;20324;-75
2022/07/15 09:53:16;;;;;;;3.15;0.70;;;;;;;16.94;63.94;102410.03;5021104;28;20039;-75
2022/07/15 09:55:42;;;;;;;2.75;1.05;;;;;;;17.00;62.79;102407.09;5036983;28;20045;-75
2022/07/15 09:58:08;;;;;;;1.20;1.00;;;;;;;17.06;63.46;102406.84;5046222;28;20178;-75
2022/07/15 10:00:37;;;;;;;1.92;0.88;;;;;;;17.11;62.54;102398.72;5041305;28;20032;-74
2022/07/15 10:03:02;;;;;;;3.15;0.88;;;;;;;17.13;62.04;102405.63;5034911;28;20135;-75
2022/07/15 10:05:30;;;;;;;1.73;1.02;;;;;;;17.16;62.12;102409.97;5021185;28;20218;-75
2022/07/15 10:07:58;;;;;;;5.45;1.10;;;;;;;17.20;62.41;102409.75;5048863;28;20030;-75
2022/07/15 10:10:24;;;;;;;1.63;0.85;;;;;;;17.26;63.86;102404.19;5031584;28;20028;-75
2022/07/15 10:13:15;;;;;;;1.42;0.70;;;;;;;17.30;64.27;102404.03;5056332;28;20477;-75
2022/07/15 10:15:52;;;;;;;1.35;0.80;;;;;;;17.31;64.06;102405.78;5025182;28;20104;-75
2022/07/15 10:18:43;;;;;;;1.40;0.47;;;;;;;17.31;64.34;102406.63;5062989;28;20254;-75
2022/07/15 10:21:19;;;;;;;0.80;0.60;;;;;;;17.26;63.09;102409.50;5056907;28;20367;-75
2022/07/15 10:24:01;;;;;;;2.30;0.77;;;;;;;17.28;62.14;102398.81;5060158;28;20312;-75
2022/07/15 10:26:35;;;;;;;3.53;1.17;;;;;;;17.30;62.14;102406.69;5046688;28;20033;-75
2022/07/15 10:29:04;;;;;;;1.63;0.77;;;;;;;17.32;63.15;102402.19;5057252;28;20062;-75
2022/07/15 10:31:32;;;;;;;2.25;0.80;;;;;;;17.36;62.91;102388.75;5044331;28;20413;-75
2022/07/15 10:34:03;;;;;;;0.90;0.60;;;;;;;17.40;63.42;102402.72;5047884;28;20041;-75
2022/07/15 10:36:47;;;;;;;2.35;0.70;;;;;;;17.41;62.17;102394.72;5044167;28;20213;-75
2022/07/15 10:39:17;;;;;;;2.80;0.82;;;;;;;17.44;62.14;102391.94;5038304;28;20041;-75
2022/07/15 10:42:03;;;;;;;1.63;0.77;;;;;;;17.51;61.30;102386.34;5046794;28;20033;-76
2022/07/15 10:44:32;;;;;;;1.65;0.73;;;;;;;17.53;61.18;102379.19;5029045;28;20037;-75
2022/07/15 10:47:12;;;;;;;1.17;0.77;;;;;;;17.53;61.02;102385.34;5045313;28;20025;-75
2022/07/15 10:49:42;;;;;;;0.77;0.55;;;;;;;17.54;62.36;102375.63;5046242;28;20041;-75
2022/07/15 10:52:15;;;;;;;1.40;0.60;;;;;;;17.57;62.49;102386.94;5040791;28;20263;-75
2022/07/15 10:54:42;;;;;;;3.22;0.80;;;;;;;17.58;62.89;102377.19;5026506;28;20043;-75
2022/07/15 10:57:08;;;;;;;1.05;0.63;;;;;;;17.58;62.63;102375.38;5051636;28;20055;-75
2022/07/15 10:59:41;;;;;;;1.00;0.60;;;;;;;17.60;60.87;102370.88;5035495;28;20080;-75
2022/07/15 11:02:06;;;;;;;5.50;0.60;;;;;;;17.67;61.67;102382.06;5043370;28;20312;-75
2022/07/15 11:04:33;;;;;;;1.02;0.57;;;;;;;17.72;62.20;102382.72;5022736;28;20032;-75
2022/07/15 11:07:01;;;;;;;0.60;0.60;;;;;;;17.77;61.91;102387.78;5039986;28;20044;-75
2022/07/15 11:10:03;;;;;;;0.98;0.55;;;;;;;17.82;63.11;102391.09;5042560;28;20080;-75
2022/07/15 11:12:29;;;;;;;5.13;0.95;;;;;;;17.87;62.72;102385.63;5049098;28;20036;-75
2022/07/15 11:15:11;;;;;;;1.20;0.68;;;;;;;17.92;63.32;102386.22;5039916;28;20119;-75
2022/07/15 11:17:36;;;;;;;2.05;0.90;;;;;;;17.96;61.98;102385.19;5035390;28;20057;-75
2022/07/15 11:20:08;;;;;;;1.38;0.90;;;;;;;17.98;61.94;102386.81;5037923;28;20036;-75
2022/07/15 11:22:34;;;;;;;1.70;0.98;;;;;;;18.02;62.38;102376.94;5051774;28;20055;-75
2022/07/15 11:25:00;;;;;;;2.35;0.90;;;;;;;18.06;62.35;102381.13;5039451;28;20037;-75
2022/07/15 11:27:26;;;;;;;2.03;0.80;;;;;;;18.09;61.77;102375.69;5046607;28;20124;-75
2022/07/15 11:29:59;;;;;;;1.10;0.90;;;;;;;18.13;61.77;102373.75;5030574;28;20033;-75
2022/07/15 11:32:25;;;;;;;2.90;0.80;;;;;;;18.14;61.47;102381.66;5027140;28;20037;-75